Time;durP1;ratioP1;P1;durP2;ratioP2;P2;SDS_P1;SDS_P2;PMS_P1;PMS_P2;Temp;Humidity;BMP_temperature;BMP_pressure;BME280_temperature;BME280_humidity;BME280_pressure;Samples;Min_cycle;Max_cycle;Signal;HPM_P1;HPM_P2
2023/12/23 00:01:34;;;;;;;1.00;0.20;;;;;;;10.20;56.22;94855.09;6166689;23;20004;-86
2023/12/23 00:04:01;;;;;;;0.10;0.10;;;;;;;10.44;55.27;94851.38;6192564;23;20015;-86
2023/12/23 00:06:26;;;;;;;0.15;0.15;;;;;;;10.26;56.60;94853.56;6217519;23;20015;-85
2023/12/23 00:08:52;;;;;;;0.13;0.13;;;;;;;10.32;56.36;94855.47;6217414;23;20004;-86
2023/12/23 00:11:17;;;;;;;0.15;0.10;;;;;;;10.47;55.78;94839.78;6217552;23;20016;-85
2023/12/23 00:13:46;;;;;;;0.50;0.10;;;;;;;10.43;55.09;94854.16;6192853;23;20008;-85
2023/12/23 00:16:12;;;;;;;0.63;0.25;;;;;;;10.40;55.06;94865.75;6192895;23;20086;-85
2023/12/23 00:18:37;;;;;;;0.10;0.10;;;;;;;10.34;55.39;94861.28;6217177;23;20008;-86
2023/12/23 00:21:03;;;;;;;0.75;0.20;;;;;;;10.45;55.39;94858.22;6192900;23;20135;-85
2023/12/23 00:23:28;;;;;;;0.25;0.20;;;;;;;10.34;55.59;94854.28;6217445;23;20008;-86
2023/12/23 00:25:54;;;;;;;0.73;0.10;;;;;;;10.42;55.39;94868.16;6191534;23;20082;-86
2023/12/23 00:28:20;;;;;;;0.22;0.20;;;;;;;10.33;55.59;94875.25;6217719;23;20040;-86
2023/12/23 00:30:47;;;;;;;0.20;0.15;;;;;;;10.22;55.77;94868.72;6192755;23;20062;-86
2023/12/23 00:33:16;;;;;;;0.10;0.10;;;;;;;10.26;55.33;94846.59;6192435;23;20087;-86
2023/12/23 00:35:42;;;;;;;0.20;0.20;;;;;;;10.34;55.40;94858.69;6192210;23;20031;-86
2023/12/23 00:38:08;;;;;;;0.10;0.10;;;;;;;10.20;56.17;94867.28;6192511;23;20005;-86
2023/12/23 00:40:33;;;;;;;0.10;0.10;;;;;;;10.27;55.58;94848.19;6192976;23;20012;-86
2023/12/23 00:42:59;;;;;;;0.50;0.20;;;;;;;10.11;56.26;94864.00;6192596;23;20031;-86
2023/12/23 00:45:27;;;;;;;0.10;0.10;;;;;;;10.26;55.46;94864.78;6217348;23;20012;-86
2023/12/23 00:47:53;;;;;;;0.20;0.20;;;;;;;10.28;55.84;94867.19;6192905;23;20011;-85
2023/12/23 00:52:43;;;;;;;0.13;0.13;;;;;;;10.45;54.59;94881.59;6259850;22;20015;-86
2023/12/23 00:55:09;;;;;;;0.28;0.20;;;;;;;10.31;55.03;94862.44;6197614;22;20237;-86
2023/12/23 00:57:34;;;;;;;0.20;0.20;;;;;;;10.39;54.49;94866.72;6247748;22;20026;-85
2023/12/23 01:00:00;;;;;;;0.20;0.10;;;;;;;10.42;54.90;94874.16;6223067;22;20003;-85
2023/12/23 01:02:26;;;;;;;0.32;0.20;;;;;;;10.27;55.37;94887.16;6222419;22;20038;-86
2023/12/23 01:04:54;;;;;;;0.10;0.10;;;;;;;10.37;54.68;94886.91;6248066;22;20003;-86
2023/12/23 01:07:19;;;;;;;0.75;0.10;;;;;;;10.35;54.14;94881.88;6222554;22;20015;-86
2023/12/23 01:09:44;;;;;;;0.22;0.10;;;;;;;10.50;54.35;94892.25;6223748;22;20012;-85
2023/12/23 01:12:10;;;;;;;0.10;0.10;;;;;;;10.32;54.88;94894.47;6249839;22;20004;-87
2023/12/23 01:14:38;;;;;;;0.10;0.10;;;;;;;10.21;54.80;94881.91;6224341;22;20011;-86
2023/12/23 01:17:04;;;;;;;0.40;0.20;;;;;;;10.25;54.47;94894.34;6224602;22;20012;-86
2023/12/23 01:19:29;;;;;;;0.20;0.20;;;;;;;10.42;54.26;94897.56;6225003;22;20011;-86
2023/12/23 01:21:55;;;;;;;0.15;0.15;;;;;;;10.40;54.28;94912.53;6223840;22;20011;-86
2023/12/23 01:24:20;;;;;;;0.20;0.20;;;;;;;10.54;54.10;94919.47;6224338;22;20094;-86
2023/12/23 01:26:45;;;;;;;0.43;0.20;;;;;;;10.49;54.20;94924.44;6224251;22;20000;-86
2023/12/23 01:29:13;;;;;;;0.38;0.20;;;;;;;10.48;54.10;94924.63;6249820;22;20003;-85
2023/12/23 01:31:39;;;;;;;0.20;0.20;;;;;;;10.37;54.43;94929.28;6249611;22;20010;-85
2023/12/23 01:34:04;;;;;;;0.20;0.20;;;;;;;10.38;54.38;94943.13;6224234;22;20007;-85
2023/12/23 01:36:31;;;;;;;0.20;0.20;;;;;;;10.32;55.00;94951.66;6224178;22;20008;-85
2023/12/23 01:38:59;;;;;;;0.30;0.30;;;;;;;10.09;55.51;94942.16;6224438;22;20030;-86
2023/12/23 01:41:24;;;;;;;0.17;0.17;;;;;;;10.15;54.80;94948.41;6224341;22;20015;-86
2023/12/23 01:43:50;;;;;;;0.85;0.20;;;;;;;10.17;54.34;94944.66;6224559;22;20008;-86
2023/12/23 01:46:15;;;;;;;1.42;0.30;;;;;;;10.16;54.74;94945.63;6224207;22;20000;-86
2023/12/23 01:48:44;;;;;;;0.45;0.20;;;;;;;10.37;53.93;94967.50;6224059;22;20022;-86
2023/12/23 01:51:11;;;;;;;0.80;0.17;;;;;;;10.40;54.36;94972.34;6247650;22;20014;-86
2023/12/23 01:53:36;;;;;;;0.82;0.20;;;;;;;10.45;53.57;94951.81;6223923;22;20008;-86
2023/12/23 01:56:02;;;;;;;0.10;0.10;;;;;;;10.39;53.55;94960.31;6223869;22;20007;-86
2023/12/23 01:58:28;;;;;;;0.20;0.10;;;;;;;10.08;54.27;94950.91;6248482;22;20003;-86
2023/12/23 02:00:53;;;;;;;0.22;0.10;;;;;;;10.24;54.38;94964.72;6224013;22;20073;-86
2023/12/23 02:03:19;;;;;;;0.25;0.22;;;;;;;10.55;53.74;94987.91;6224630;22;20041;-85
2023/12/23 02:05:45;;;;;;;0.40;0.20;;;;;;;10.46;53.97;94979.41;6223901;22;20037;-86
2023/12/23 02:08:12;;;;;;;0.10;0.10;;;;;;;10.38;53.99;94982.13;6248591;22;20007;-86
2023/12/23 02:10:38;;;;;;;1.00;0.20;;;;;;;10.27;53.52;94970.34;6248978;22;19999;-86
2023/12/23 02:13:18;;;;;;;0.20;0.20;;;;;;;10.15;54.73;94997.81;6223401;22;20031;-86
2023/12/23 02:15:46;;;;;;;0.60;0.20;;;;;;;10.27;54.11;94990.34;6249193;22;20003;-86
2023/12/23 02:18:12;;;;;;;0.20;0.20;;;;;;;10.36;54.04;94991.91;6249439;22;20008;-86
2023/12/23 02:20:37;;;;;;;0.30;0.20;;;;;;;10.31;54.27;94981.22;6223328;22;20022;-85
2023/12/23 02:23:04;;;;;;;0.13;0.13;;;;;;;10.28;53.54;94997.13;6223782;22;20008;-85
2023/12/23 02:25:30;;;;;;;0.20;0.20;;;;;;;10.30;54.07;95001.22;6249004;22;20011;-86
2023/12/23 02:28:05;;;;;;;0.20;0.20;;;;;;;10.22;53.66;94995.28;6248880;22;20003;-85
2023/12/23 02:30:35;;;;;;;0.15;0.15;;;;;;;10.37;54.01;95001.28;6248526;22;20003;-86
2023/12/23 02:33:01;;;;;;;0.20;0.20;;;;;;;10.07;54.69;95005.66;6224056;22;20015;-85
2023/12/23 02:35:27;;;;;;;0.63;0.20;;;;;;;10.19;54.34;95017.25;6249415;22;20083;-86
2023/12/23 02:37:54;;;;;;;0.75;0.20;;;;;;;10.33;54.38;95010.44;6217105;23;20078;-86
2023/12/23 02:40:22;;;;;;;0.10;0.10;;;;;;;10.52;53.30;95022.88;6194619;23;20046;-86
2023/12/23 02:42:47;;;;;;;0.35;0.20;;;;;;;10.29;53.58;95011.75;6194140;23;20019;-85
2023/12/23 02:45:13;;;;;;;0.32;0.20;;;;;;;10.39;53.55;95014.13;6193411;23;20000;-86
2023/12/23 02:47:39;;;;;;;0.28;0.20;;;;;;;10.34;54.01;94999.06;6217863;23;20004;-86
2023/12/23 02:50:05;;;;;;;0.73;0.25;;;;;;;10.47;53.28;94988.00;6218369;23;20008;-85
2023/12/23 02:52:30;;;;;;;0.20;0.20;;;;;;;10.64;52.54;94992.03;6218394;23;20027;-86
2023/12/23 02:54:56;;;;;;;0.10;0.10;;;;;;;10.60;52.42;94992.56;6218081;23;20087;-86
2023/12/23 02:59:47;;;;;;;0.10;0.10;;;;;;;10.43;53.53;94994.56;6243473;23;20024;-86
2023/12/23 03:02:12;;;;;;;0.20;0.20;;;;;;;10.46;53.23;94995.00;6218329;23;20244;-86
2023/12/23 03:04:40;;;;;;;1.27;0.15;;;;;;;10.41;53.29;94996.53;6169170;23;20000;-86
2023/12/23 03:07:05;;;;;;;0.17;0.13;;;;;;;10.68;52.42;95002.84;6193013;23;20066;-86
2023/12/23 03:09:31;;;;;;;0.10;0.10;;;;;;;10.60;52.53;95003.75;6218970;23;20004;-86
2023/12/23 03:11:56;;;;;;;0.43;0.20;;;;;;;10.55;52.71;94993.13;6168794;23;20008;-86
2023/12/23 03:14:22;;;;;;;0.25;0.20;;;;;;;10.53;52.49;94980.28;6194209;23;20004;-86
2023/12/23 03:16:47;;;;;;;0.20;0.20;;;;;;;10.51;52.67;94995.28;6194494;23;20011;-86
2023/12/23 03:19:13;;;;;;;0.20;0.20;;;;;;;10.31;53.02;94982.03;6193424;23;20062;-87
2023/12/23 03:21:43;;;;;;;0.38;0.20;;;;;;;10.39;53.04;94985.50;6167970;23;20008;-85
2023/12/23 03:24:09;;;;;;;0.20;0.20;;;;;;;10.45;53.11;94990.81;6218416;23;20056;-86
2023/12/23 03:26:34;;;;;;;0.20;0.20;;;;;;;10.40;53.32;94985.34;6218374;23;20038;-86
2023/12/23 03:29:03;;;;;;;0.52;0.10;;;;;;;10.58;52.89;95000.53;6192934;23;20031;-85
2023/12/23 03:31:28;;;;;;;0.20;0.20;;;;;;;10.30;54.00;94997.75;6217966;23;20004;-86
2023/12/23 03:33:55;;;;;;;0.20;0.20;;;;;;;10.51;53.08;94991.88;6168640;23;20043;-86
2023/12/23 03:36:20;;;;;;;0.10;0.10;;;;;;;10.61;52.52;95012.38;6166653;23;20016;-86
2023/12/23 03:38:48;;;;;;;0.10;0.10;;;;;;;10.39;53.16;95011.50;6167036;23;20008;-86
2023/12/23 03:41:14;;;;;;;0.20;0.20;;;;;;;10.57;52.19;94991.13;6167816;23;20008;-86
2023/12/23 03:43:41;;;;;;;0.43;0.20;;;;;;;10.64;52.33;94996.41;6191813;23;20014;-86
2023/12/23 03:46:06;;;;;;;0.20;0.17;;;;;;;10.70;51.75;94991.28;6167773;23;20035;-86
2023/12/23 03:48:32;;;;;;;0.10;0.10;;;;;;;10.46;52.87;94974.22;6192787;23;20004;-86
2023/12/23 03:50:57;;;;;;;0.50;0.30;;;;;;;10.22;53.70;94990.06;6193333;23;20004;-86
2023/12/23 03:53:22;;;;;;;0.10;0.10;;;;;;;10.58;52.47;94984.94;6168357;23;20016;-85
2023/12/23 03:55:48;;;;;;;0.30;0.20;;;;;;;10.39;52.57;94994.13;6192672;23;20027;-86
2023/12/23 03:58:14;;;;;;;0.10;0.10;;;;;;;10.44;52.64;94991.78;6192915;23;20018;-86
2023/12/23 04:00:39;;;;;;;0.85;0.30;;;;;;;10.61;51.83;94992.38;6168262;23;20081;-86
2023/12/23 04:03:07;;;;;;;0.20;0.20;;;;;;;10.52;52.64;94989.06;6167953;23;20019;-86
2023/12/23 04:05:32;;;;;;;0.82;0.20;;;;;;;10.55;52.23;94985.31;6168661;23;20031;-86
2023/12/23 04:07:58;;;;;;;0.20;0.10;;;;;;;10.66;52.11;95002.22;6192578;23;20019;-86
2023/12/23 04:10:23;;;;;;;0.63;0.10;;;;;;;10.49;52.68;94997.25;6217673;23;20008;-86
2023/12/23 04:12:50;;;;;;;0.43;0.20;;;;;;;10.73;52.06;95011.72;6168147;23;20004;-85
2023/12/23 04:15:15;;;;;;;0.80;0.10;;;;;;;10.59;52.24;94996.97;6192772;23;20012;-85
2023/12/23 04:17:44;;;;;;;0.57;0.20;;;;;;;10.62;52.40;95014.00;6218030;23;20006;-86
2023/12/23 04:20:10;;;;;;;0.65;0.20;;;;;;;10.57;52.28;95002.34;6168457;23;20038;-85
2023/12/23 04:22:36;;;;;;;0.10;0.10;;;;;;;10.68;52.32;95003.66;6192947;23;20056;-86
2023/12/23 04:25:03;;;;;;;0.65;0.10;;;;;;;10.62;52.22;95009.59;6167657;23;20012;-86
2023/12/23 04:27:28;;;;;;;0.15;0.10;;;;;;;10.65;52.31;95008.44;6217461;23;20008;-86
2023/12/23 04:29:54;;;;;;;0.30;0.17;;;;;;;10.57;52.32;95007.53;6192706;23;20010;-86
2023/12/23 04:32:22;;;;;;;0.10;0.10;;;;;;;10.51;51.84;95005.69;6193204;23;20015;-86
2023/12/23 04:34:47;;;;;;;0.40;0.20;;;;;;;10.41;52.57;95010.34;6193159;23;20016;-86
2023/12/23 04:37:14;;;;;;;0.15;0.10;;;;;;;10.48;52.00;94990.44;6217523;23;20004;-86
2023/12/23 04:39:43;;;;;;;0.30;0.20;;;;;;;10.81;51.31;95008.19;6167874;23;20042;-86
2023/12/23 04:42:09;;;;;;;0.10;0.10;;;;;;;10.62;51.50;95016.59;6192705;23;20015;-86
2023/12/23 04:46:59;;;;;;;0.10;0.10;;;;;;;10.50;51.89;95014.44;6243779;22;20031;-86
2023/12/23 04:49:25;;;;;;;0.10;0.10;;;;;;;10.46;51.97;95015.81;6194401;23;20242;-86
2023/12/23 04:51:50;;;;;;;0.20;0.10;;;;;;;10.33;51.94;95018.25;6194528;23;20067;-86
2023/12/23 04:54:16;;;;;;;0.73;0.10;;;;;;;10.41;52.78;95025.94;6170030;23;20027;-86
2023/12/23 04:56:41;;;;;;;0.10;0.10;;;;;;;10.53;51.84;95019.31;6194226;23;20043;-86
2023/12/23 04:59:08;;;;;;;0.20;0.20;;;;;;;10.44;52.43;94996.97;6169234;23;20008;-85
2023/12/23 05:03:58;;;;;;;0.85;0.20;;;;;;;10.51;51.72;95021.28;6243233;23;20031;-86
2023/12/23 05:06:25;;;;;;;0.22;0.20;;;;;;;10.55;52.48;95029.53;6169741;23;20008;-86
2023/12/23 05:08:50;;;;;;;0.10;0.10;;;;;;;10.43;52.42;95000.56;6194176;23;20099;-86
2023/12/23 05:11:16;;;;;;;0.55;0.20;;;;;;;10.39;52.46;94998.50;6194243;23;20114;-85
2023/12/23 05:13:41;;;;;;;0.10;0.10;;;;;;;10.45;52.52;94997.78;6219189;23;20086;-86
2023/12/23 05:16:07;;;;;;;0.30;0.20;;;;;;;10.39;52.58;94988.91;6219190;23;20011;-86
2023/12/23 05:18:34;;;;;;;0.20;0.20;;;;;;;10.42;52.61;95005.97;6219353;23;20004;-86
2023/12/23 05:21:00;;;;;;;0.20;0.17;;;;;;;10.42;52.63;94993.75;6170677;23;20011;-86
2023/12/23 05:23:25;;;;;;;0.52;0.10;;;;;;;10.44;52.26;94986.59;6193992;23;20067;-86
2023/12/23 05:25:53;;;;;;;0.20;0.17;;;;;;;10.28;53.68;95005.78;6169387;23;20008;-86
2023/12/23 05:28:22;;;;;;;0.20;0.20;;;;;;;10.40;52.92;95005.34;6214506;23;20020;-85
2023/12/23 05:30:48;;;;;;;0.10;0.10;;;;;;;10.44;52.61;94994.38;6193648;23;20015;-86
2023/12/23 05:33:13;;;;;;;0.80;0.20;;;;;;;10.30;53.28;94983.03;6192475;23;20035;-86
2023/12/23 05:35:38;;;;;;;0.15;0.10;;;;;;;10.33;53.22;94981.84;6194350;23;20110;-86
2023/12/23 05:38:04;;;;;;;0.10;0.10;;;;;;;10.24;53.21;94975.09;6240597;23;20077;-87
2023/12/23 05:40:29;;;;;;;0.10;0.10;;;;;;;10.53;52.51;94985.50;6169547;23;20019;-86
2023/12/23 05:42:55;;;;;;;0.57;0.10;;;;;;;10.26;53.34;94991.31;6219309;23;20004;-86
2023/12/23 05:45:20;;;;;;;0.30;0.20;;;;;;;10.08;54.04;94983.91;6219054;23;20008;-86
2023/12/23 05:47:49;;;;;;;0.20;0.20;;;;;;;10.27;53.19;94993.75;6193311;23;20011;-86
2023/12/23 05:50:15;;;;;;;0.40;0.20;;;;;;;9.97;54.02;94985.16;6170541;23;20042;-88
2023/12/23 05:52:41;;;;;;;0.68;0.22;;;;;;;10.21;53.31;95006.66;6218619;23;20020;-85
2023/12/23 05:55:07;;;;;;;0.10;0.10;;;;;;;10.14;53.16;94991.78;6169528;23;20019;-86
2023/12/23 05:57:32;;;;;;;0.20;0.20;;;;;;;10.36;52.90;94984.91;6193512;23;20030;-86
2023/12/23 06:00:00;;;;;;;0.20;0.20;;;;;;;10.31;52.55;95002.03;6218611;23;20004;-86
2023/12/23 06:02:26;;;;;;;0.10;0.10;;;;;;;10.46;52.82;95015.81;6168711;23;20091;-86
2023/12/23 06:04:52;;;;;;;0.30;0.20;;;;;;;10.47;52.71;95025.22;6218778;23;20028;-85
2023/12/23 06:07:17;;;;;;;0.47;0.20;;;;;;;10.36;52.52;95017.91;6218654;23;20012;-86
2023/12/23 06:09:44;;;;;;;0.50;0.20;;;;;;;10.42;52.51;95019.75;6218680;23;20023;-85
2023/12/23 06:12:10;;;;;;;0.20;0.20;;;;;;;10.45;52.11;95019.41;6218584;23;20015;-85
2023/12/23 06:14:36;;;;;;;0.10;0.10;;;;;;;10.45;52.09;95018.59;6169235;23;20004;-84
2023/12/23 06:17:01;;;;;;;0.13;0.13;;;;;;;10.54;52.08;95012.28;6193984;23;20008;-86
2023/12/23 06:19:27;;;;;;;0.22;0.20;;;;;;;10.48;51.91;95005.22;6217461;23;20007;-86
2023/12/23 06:21:57;;;;;;;0.40;0.10;;;;;;;10.41;51.21;94993.94;6193742;23;20020;-86
2023/12/23 06:24:23;;;;;;;0.50;0.20;;;;;;;10.46;51.49;95005.41;6218337;23;20043;-86
2023/12/23 06:29:24;;;;;;;0.32;0.20;;;;;;;10.46;51.25;95021.00;6241402;23;20082;-85
2023/12/23 06:31:49;;;;;;;0.20;0.20;;;;;;;10.46;51.74;95031.41;6168791;23;20012;-85
2023/12/23 06:34:15;;;;;;;0.10;0.10;;;;;;;10.30;51.60;95022.03;6168207;23;20023;-85
2023/12/23 06:36:40;;;;;;;1.13;0.20;;;;;;;10.18;52.17;95024.25;6168018;23;20031;-85
2023/12/23 06:39:06;;;;;;;0.10;0.10;;;;;;;10.23;52.05;95026.28;6168800;23;20038;-85
2023/12/23 06:41:34;;;;;;;0.10;0.10;;;;;;;10.31;51.45;95023.63;6193459;23;20012;-85
2023/12/23 06:43:59;;;;;;;0.10;0.10;;;;;;;10.21;52.26;95043.06;6169349;23;20018;-85
2023/12/23 06:46:28;;;;;;;0.73;0.20;;;;;;;10.26;52.08;95051.09;6193601;23;20035;-86
2023/12/23 06:48:54;;;;;;;0.10;0.10;;;;;;;10.26;51.50;95033.75;6193191;23;20000;-86
2023/12/23 06:51:19;;;;;;;0.20;0.20;;;;;;;10.37;50.79;95022.88;6183432;23;20035;-86
2023/12/23 06:53:47;;;;;;;0.20;0.10;;;;;;;10.27;51.18;95016.34;6187096;23;20013;-85
2023/12/23 06:56:15;;;;;;;0.20;0.20;;;;;;;10.32;50.91;95014.03;6187751;23;20013;-85
2023/12/23 06:58:40;;;;;;;0.15;0.10;;;;;;;10.43;51.17;95016.16;6188058;23;20001;-86
2023/12/23 07:01:06;;;;;;;0.20;0.20;;;;;;;10.34;51.35;95012.06;6187914;23;20015;-86
2023/12/23 07:03:31;;;;;;;0.30;0.15;;;;;;;10.41;50.37;94994.72;6212432;23;20008;-85
2023/12/23 07:05:57;;;;;;;0.30;0.20;;;;;;;10.52;50.29;94994.28;6163120;23;20100;-86
2023/12/23 07:08:23;;;;;;;0.32;0.20;;;;;;;10.56;50.34;95011.13;6187550;23;20001;-86
2023/12/23 07:10:49;;;;;;;0.95;0.22;;;;;;;10.54;50.69;95000.09;6213079;23;20012;-87
2023/12/23 07:13:14;;;;;;;0.20;0.20;;;;;;;10.47;50.67;94996.63;6212990;23;20013;-85
2023/12/23 07:15:40;;;;;;;0.47;0.20;;;;;;;10.51;50.89;94997.88;6187853;23;20019;-86
2023/12/23 07:18:06;;;;;;;0.20;0.20;;;;;;;10.46;50.73;94982.00;6188271;23;20016;-86
2023/12/23 07:20:34;;;;;;;0.52;0.20;;;;;;;10.49;50.49;94997.25;6212856;23;20032;-86
2023/12/23 07:23:00;;;;;;;0.20;0.20;;;;;;;10.38;51.02;95000.31;6181312;23;20013;-86
2023/12/23 07:25:25;;;;;;;0.30;0.20;;;;;;;10.25;50.43;94998.31;6157167;23;20016;-87
2023/12/23 07:27:52;;;;;;;0.22;0.20;;;;;;;10.29;50.61;95006.56;6157758;23;20005;-87
2023/12/23 07:30:17;;;;;;;0.10;0.10;;;;;;;10.42;50.57;95013.75;6158408;23;20012;-86
2023/12/23 07:32:43;;;;;;;0.30;0.20;;;;;;;10.48;50.26;95016.44;6158052;23;20004;-87
2023/12/23 07:35:08;;;;;;;0.13;0.13;;;;;;;10.35;50.86;95035.25;6182952;23;20020;-87
2023/12/23 07:37:34;;;;;;;0.40;0.28;;;;;;;10.55;50.54;95032.94;6157610;23;20011;-86
2023/12/23 07:39:59;;;;;;;0.38;0.20;;;;;;;10.47;50.26;95021.81;6182302;23;20012;-86
2023/12/23 07:42:25;;;;;;;0.20;0.20;;;;;;;10.43;50.58;95021.34;6182227;23;20059;-86
2023/12/23 07:44:51;;;;;;;0.10;0.10;;;;;;;10.44;50.18;95028.19;6182547;23;20023;-86
2023/12/23 07:47:17;;;;;;;0.10;0.10;;;;;;;10.40;50.55;95013.94;6182480;23;20008;-86
2023/12/23 07:49:43;;;;;;;0.20;0.20;;;;;;;10.54;50.18;95020.91;6182407;23;20005;-86
2023/12/23 07:52:09;;;;;;;0.30;0.20;;;;;;;10.41;50.45;95007.75;6182116;23;20012;-86
2023/12/23 07:54:35;;;;;;;0.20;0.20;;;;;;;10.30;50.33;95005.56;6157763;23;20032;-86
2023/12/23 07:57:00;;;;;;;0.30;0.10;;;;;;;10.49;50.26;95028.47;6182028;23;20005;-87
2023/12/23 07:59:28;;;;;;;0.40;0.20;;;;;;;10.53;50.09;95026.31;6182265;23;20019;-86
2023/12/23 08:01:54;;;;;;;0.20;0.20;;;;;;;10.50;50.14;95021.47;6181488;23;20040;-85
2023/12/23 08:04:20;;;;;;;1.08;0.20;;;;;;;10.40;49.91;95002.75;6181870;23;20013;-85
2023/12/23 08:06:45;;;;;;;0.30;0.15;;;;;;;10.52;50.01;94996.88;6157270;23;20088;-86
2023/12/23 08:09:11;;;;;;;0.68;0.20;;;;;;;10.45;50.87;95003.81;6181852;23;20069;-85
2023/12/23 08:11:36;;;;;;;0.45;0.20;;;;;;;10.49;50.17;95018.06;6180463;23;20005;-85
2023/12/23 08:14:03;;;;;;;0.13;0.10;;;;;;;10.46;50.03;95026.22;6156866;23;20120;-85
2023/12/23 08:16:29;;;;;;;0.15;0.10;;;;;;;10.43;49.94;95023.97;6181827;23;20012;-85
2023/12/23 08:18:54;;;;;;;1.13;0.30;;;;;;;10.29;50.89;95019.56;6156535;23;20009;-85
2023/12/23 08:21:21;;;;;;;0.30;0.20;;;;;;;10.45;50.06;95022.00;6157190;23;20066;-84
2023/12/23 08:23:47;;;;;;;0.20;0.20;;;;;;;10.38;50.02;95008.13;6158274;23;20002;-85
2023/12/23 08:26:12;;;;;;;0.30;0.10;;;;;;;10.34;50.09;95025.06;6182475;23;20146;-84
2023/12/23 08:28:40;;;;;;;0.35;0.20;;;;;;;10.36;49.91;95034.28;6181760;23;20005;-85
2023/12/23 08:31:07;;;;;;;0.68;0.30;;;;;;;10.43;50.07;95015.38;6132866;23;20008;-85
2023/12/23 08:33:33;;;;;;;0.25;0.25;;;;;;;10.67;49.78;95022.06;6108676;23;20016;-85
2023/12/23 08:35:58;;;;;;;0.30;0.20;;;;;;;10.30;49.79;95010.75;6157737;23;20008;-87
2023/12/23 08:38:24;;;;;;;0.40;0.30;;;;;;;10.59;50.01;95025.56;6108807;23;20001;-86
2023/12/23 08:40:49;;;;;;;0.20;0.20;;;;;;;10.49;49.70;95025.84;6132729;23;20039;-85
2023/12/23 08:43:16;;;;;;;0.30;0.20;;;;;;;10.55;49.60;95024.31;6181680;23;20005;-85
2023/12/23 08:45:42;;;;;;;0.20;0.20;;;;;;;10.55;49.31;95024.31;6132661;23;20013;-85
2023/12/23 08:48:08;;;;;;;0.60;0.20;;;;;;;10.65;49.73;95031.84;6157348;23;20012;-85
2023/12/23 08:50:36;;;;;;;0.40;0.30;;;;;;;10.51;49.74;95018.69;6181769;23;20017;-85
2023/12/23 08:53:02;;;;;;;0.40;0.20;;;;;;;10.63;48.71;95032.00;6182116;23;20107;-86
2023/12/23 08:55:28;;;;;;;0.40;0.20;;;;;;;10.72;48.73;95035.34;6157185;23;20013;-85
2023/12/23 08:57:53;;;;;;;0.73;0.20;;;;;;;10.68;49.12;95028.84;6157361;23;19997;-85
2023/12/23 09:00:23;;;;;;;0.30;0.20;;;;;;;10.63;48.94;95031.22;6182238;23;20020;-85
2023/12/23 09:02:48;;;;;;;0.17;0.17;;;;;;;10.79;49.05;95032.78;6158362;23;20005;-86
2023/12/23 09:05:14;;;;;;;0.15;0.15;;;;;;;10.72;48.30;95025.72;6181704;23;20012;-85
2023/12/23 09:07:43;;;;;;;0.55;0.25;;;;;;;10.76;48.68;95018.38;6132430;23;20009;-85
2023/12/23 09:10:09;;;;;;;0.45;0.15;;;;;;;10.75;48.62;95027.13;6131949;23;20017;-85
2023/12/23 09:12:35;;;;;;;0.25;0.20;;;;;;;10.57;49.35;95038.75;6107744;23;20016;-85
2023/12/23 09:15:01;;;;;;;0.38;0.20;;;;;;;10.79;48.46;95041.38;6131391;23;20092;-85
2023/12/23 09:17:27;;;;;;;0.20;0.20;;;;;;;10.79;49.06;95028.38;6155266;23;20036;-85
2023/12/23 09:19:54;;;;;;;0.30;0.25;;;;;;;10.90;48.69;95027.91;6155468;23;20004;-85
2023/12/23 09:24:45;;;;;;;0.32;0.20;;;;;;;11.03;48.01;95052.47;6182993;23;20024;-84
2023/12/23 09:27:11;;;;;;;0.85;0.20;;;;;;;11.15;48.26;95056.19;6160169;23;20020;-85
2023/12/23 09:29:36;;;;;;;0.20;0.20;;;;;;;11.15;48.68;95043.19;6186055;23;20009;-85
2023/12/23 09:32:02;;;;;;;0.20;0.20;;;;;;;11.09;48.81;95051.72;6163145;23;20008;-86
2023/12/23 09:34:28;;;;;;;0.22;0.20;;;;;;;11.20;48.40;95046.03;6188308;23;20011;-86
2023/12/23 09:36:53;;;;;;;0.10;0.10;;;;;;;11.29;47.33;95047.53;6163224;23;20079;-86
2023/12/23 09:39:21;;;;;;;0.22;0.08;;;;;;;11.21;47.76;95050.25;6187725;23;20004;-85
2023/12/23 09:41:47;;;;;;;0.82;0.20;;;;;;;11.20;47.12;95058.25;6188067;23;20100;-85
2023/12/23 09:44:13;;;;;;;0.20;0.15;;;;;;;11.04;47.79;95059.28;6164060;23;20040;-85
2023/12/23 09:46:42;;;;;;;0.20;0.15;;;;;;;11.10;48.26;95064.56;6188342;23;20005;-85
2023/12/23 09:49:08;;;;;;;0.38;0.10;;;;;;;11.09;47.25;95057.72;6163239;23;20015;-85
2023/12/23 09:51:34;;;;;;;0.10;0.10;;;;;;;11.25;47.26;95072.34;6188346;23;20005;-85
2023/12/23 09:54:03;;;;;;;0.17;0.10;;;;;;;11.27;47.30;95070.34;6138234;23;20008;-85
2023/12/23 09:56:29;;;;;;;0.10;0.10;;;;;;;11.29;47.68;95065.75;6187975;23;20070;-85
2023/12/23 09:58:56;;;;;;;0.10;0.10;;;;;;;11.26;47.34;95067.94;6163417;23;20030;-85
2023/12/23 10:01:21;;;;;;;0.55;0.20;;;;;;;11.39;47.14;95062.84;6188147;23;20007;-85
2023/12/23 10:03:47;;;;;;;0.10;0.10;;;;;;;11.22;47.28;95049.25;6188177;23;20009;-85
2023/12/23 10:06:13;;;;;;;0.10;0.10;;;;;;;11.64;46.61;95062.47;6163478;23;20013;-85
2023/12/23 10:08:39;;;;;;;0.10;0.10;;;;;;;11.60;46.19;95059.44;6162945;23;20012;-85
2023/12/23 10:11:05;;;;;;;0.15;0.10;;;;;;;11.61;46.70;95058.41;6163097;23;20022;-85
2023/12/23 10:13:30;;;;;;;0.43;0.10;;;;;;;11.69;46.46;95073.09;6162926;23;20017;-85
2023/12/23 10:15:57;;;;;;;0.20;0.10;;;;;;;11.56;45.95;95060.78;6188106;23;20005;-84
2023/12/23 10:18:22;;;;;;;0.20;0.17;;;;;;;11.57;46.74;95065.00;6187891;23;20008;-85
2023/12/23 10:20:48;;;;;;;0.40;0.40;;;;;;;11.71;46.99;95071.94;6163273;23;20018;-85
2023/12/23 10:23:13;;;;;;;0.50;0.50;;;;;;;11.85;46.29;95059.03;6162676;23;20012;-84
2023/12/23 10:25:39;;;;;;;0.95;0.20;;;;;;;12.01;45.94;95058.75;6187856;23;20009;-85
2023/12/23 10:28:08;;;;;;;0.25;0.20;;;;;;;12.12;45.37;95063.44;6163079;23;20024;-85
2023/12/23 10:30:50;;;;;;;0.20;0.20;;;;;;;11.99;46.32;95057.34;6187562;23;20001;-85
2023/12/23 10:33:17;;;;;;;0.20;0.15;;;;;;;12.17;45.79;95072.53;6187262;23;20008;-85
2023/12/23 10:35:49;;;;;;;0.35;0.20;;;;;;;12.24;45.50;95076.78;6188325;23;20008;-85
2023/12/23 10:38:22;;;;;;;0.10;0.10;;;;;;;12.18;44.48;95071.50;6163377;23;20012;-85
2023/12/23 10:41:01;;;;;;;0.10;0.10;;;;;;;12.20;44.59;95075.53;6187160;23;20011;-85
2023/12/23 10:43:30;;;;;;;0.17;0.10;;;;;;;12.15;44.60;95057.06;6187755;23;20083;-84
2023/12/23 10:45:57;;;;;;;0.10;0.10;;;;;;;12.03;44.75;95061.16;6187844;23;20012;-85
2023/12/23 10:48:25;;;;;;;0.20;0.10;;;;;;;12.25;44.15;95054.91;6162201;23;20039;-85
2023/12/23 10:50:51;;;;;;;0.30;0.20;;;;;;;12.30;44.34;95062.16;6187202;23;20011;-85
2023/12/23 10:53:19;;;;;;;0.20;0.10;;;;;;;12.11;44.79;95043.59;6187742;23;20004;-85
2023/12/23 10:55:47;;;;;;;0.00;0.00;;;;;;;12.47;44.29;95058.25;6186625;23;20134;-85
2023/12/23 10:58:13;;;;;;;0.10;0.10;;;;;;;12.47;43.88;95052.19;6187586;23;19997;-86
2023/12/23 11:00:39;;;;;;;0.30;0.20;;;;;;;12.58;43.61;95066.50;6186547;23;20005;-85
2023/12/23 11:03:07;;;;;;;0.25;0.10;;;;;;;12.67;44.52;95073.19;6164535;23;20028;-85
2023/12/23 11:05:35;;;;;;;1.42;0.10;;;;;;;12.57;44.12;95057.09;6127347;23;19998;-85
2023/12/23 11:08:05;;;;;;;0.10;0.10;;;;;;;12.19;44.28;95060.09;6101966;23;20014;-85
2023/12/23 11:10:31;;;;;;;0.10;0.10;;;;;;;12.62;43.39;95065.13;6127001;23;20006;-86
2023/12/23 11:12:57;;;;;;;0.10;0.10;;;;;;;12.61;44.09;95063.53;6127479;23;19998;-85
2023/12/23 11:15:24;;;;;;;0.20;0.10;;;;;;;12.49;44.47;95052.84;6104110;23;20006;-85
2023/12/23 11:17:49;;;;;;;0.10;0.10;;;;;;;12.78;44.27;95067.41;6128022;23;20009;-85
2023/12/23 11:20:35;;;;;;;0.10;0.10;;;;;;;12.94;43.75;95065.47;6127981;23;20006;-85
2023/12/23 11:23:26;;;;;;;0.32;0.10;;;;;;;12.99;43.31;95079.53;6128067;23;20308;-84
2023/12/23 11:25:52;;;;;;;0.10;0.10;;;;;;;12.65;42.77;95055.09;6127440;23;20068;-85
2023/12/23 11:28:19;;;;;;;0.10;0.10;;;;;;;12.73;43.27;95059.34;6103754;23;20006;-84
2023/12/23 11:31:00;;;;;;;0.10;0.10;;;;;;;12.69;44.99;95065.97;6127952;23;20011;-85
2023/12/23 11:33:28;;;;;;;0.30;0.20;;;;;;;12.89;43.63;95051.19;6127578;23;20013;-85
2023/12/23 11:35:57;;;;;;;0.38;0.13;;;;;;;13.01;42.93;95071.50;6103598;23;20033;-85
2023/12/23 11:38:27;;;;;;;0.20;0.10;;;;;;;13.03;43.96;95070.31;6128031;23;20010;-85
2023/12/23 11:40:53;;;;;;;0.30;0.20;;;;;;;13.09;43.02;95060.88;6127198;23;20084;-85
2023/12/23 11:43:18;;;;;;;0.10;0.10;;;;;;;13.13;43.12;95064.72;6103599;23;20040;-85
2023/12/23 11:45:46;;;;;;;0.10;0.10;;;;;;;13.03;43.37;95053.84;6103911;23;20009;-85